Terminal Aerodrome Forecast
Issued by NWS Sterling, VA

Current Version | Previous Version | Text Only | Print | Product List | Glossary Off
Versions: 1 2 3 4 5 6 7 8 9 10 11 12 13 14 15 16 17 18 19 20 21 22 23

242
FTUS41 KLWX 242324
TAFIAD
TAF
KIAD 242324Z 2500/2606 09010KT 1 1/2SM -RA BR OVC020
     FM250700 05008KT 3SM BR OVC008
     FM251400 34006KT 2SM BR OVC008
     FM251600 33007KT 4SM BR OVC010
     FM251800 33008KT P6SM BKN015
     FM260200 32010KT P6SM SCT045
     FM260500 31008KT P6SM SCT250=

USA.gov is the U.S. government's official web portal to all federal, state and local government web resources and services.